sensor_id;sensor_type;location;lat;lon;timestamp;temperature;humidity
23251;DHT22;11794;49.730;10.088;2023-02-28T00:01:21;-2.70;99.90
23251;DHT22;11794;49.730;10.088;2023-02-28T00:03:47;-2.70;99.90
23251;DHT22;11794;49.730;10.088;2023-02-28T00:06:13;-2.70;99.90
23251;DHT22;11794;49.730;10.088;2023-02-28T00:08:39;-2.70;99.90
23251;DHT22;11794;49.730;10.088;2023-02-28T00:11:12;-2.70;99.90
23251;DHT22;11794;49.730;10.088;2023-02-28T00:13:40;-2.80;99.90
23251;DHT22;11794;49.730;10.088;2023-02-28T00:16:18;-2.70;99.90
23251;DHT22;11794;49.730;10.088;2023-02-28T00:18:44;-2.80;99.90
23251;DHT22;11794;49.730;10.088;2023-02-28T00:21:10;-2.80;99.90
23251;DHT22;11794;49.730;10.088;2023-02-28T00:23:35;-2.80;99.90
23251;DHT22;11794;49.730;10.088;2023-02-28T00:26:01;-2.70;99.90
23251;DHT22;11794;49.730;10.088;2023-02-28T00:28:27;-2.70;99.90
23251;DHT22;11794;49.730;10.088;2023-02-28T00:30:52;-2.70;99.90
23251;DHT22;11794;49.730;10.088;2023-02-28T00:33:18;-2.70;99.90
23251;DHT22;11794;49.730;10.088;2023-02-28T00:35:44;-2.60;99.90
23251;DHT22;11794;49.730;10.088;2023-02-28T00:38:12;-2.60;99.90
23251;DHT22;11794;49.730;10.088;2023-02-28T00:40:37;-2.60;99.90
23251;DHT22;11794;49.730;10.088;2023-02-28T00:43:03;-2.60;99.90
23251;DHT22;11794;49.730;10.088;2023-02-28T00:45:29;-2.60;99.90
23251;DHT22;11794;49.730;10.088;2023-02-28T00:47:55;-2.70;99.90
23251;DHT22;11794;49.730;10.088;2023-02-28T00:50:21;-2.70;99.90
23251;DHT22;11794;49.730;10.088;2023-02-28T00:52:47;-2.70;99.90
23251;DHT22;11794;49.730;10.088;2023-02-28T00:55:13;-2.80;99.90
23251;DHT22;11794;49.730;10.088;2023-02-28T00:57:38;-2.80;99.90
23251;DHT22;11794;49.730;10.088;2023-02-28T01:00:04;-2.80;99.90
23251;DHT22;11794;49.730;10.088;2023-02-28T01:02:30;-2.80;99.90
23251;DHT22;11794;49.730;10.088;2023-02-28T01:04:56;-2.80;99.90
23251;DHT22;11794;49.730;10.088;2023-02-28T01:07:22;-2.80;99.90
23251;DHT22;11794;49.730;10.088;2023-02-28T01:09:48;-2.90;99.90
23251;DHT22;11794;49.730;10.088;2023-02-28T01:12:14;-2.90;99.90
23251;DHT22;11794;49.730;10.088;2023-02-28T01:14:40;-2.90;99.90
23251;DHT22;11794;49.730;10.088;2023-02-28T01:17:05;-2.90;99.90
23251;DHT22;11794;49.730;10.088;2023-02-28T01:19:31;-2.90;99.90
23251;DHT22;11794;49.730;10.088;2023-02-28T01:21:56;-2.90;99.90
23251;DHT22;11794;49.730;10.088;2023-02-28T01:24:22;-2.90;99.90
23251;DHT22;11794;49.730;10.088;2023-02-28T01:26:47;-3.00;99.90
23251;DHT22;11794;49.730;10.088;2023-02-28T01:29:13;-3.00;99.90
23251;DHT22;11794;49.730;10.088;2023-02-28T01:31:40;-3.00;99.90
23251;DHT22;11794;49.730;10.088;2023-02-28T01:34:05;-3.10;99.90
23251;DHT22;11794;49.730;10.088;2023-02-28T01:36:31;-3.10;99.90
23251;DHT22;11794;49.730;10.088;2023-02-28T01:38:56;-3.10;99.90
23251;DHT22;11794;49.730;10.088;2023-02-28T01:41:27;-3.10;99.90
23251;DHT22;11794;49.730;10.088;2023-02-28T01:44:04;-3.10;99.90
23251;DHT22;11794;49.730;10.088;2023-02-28T01:46:31;-3.10;99.90
23251;DHT22;11794;49.730;10.088;2023-02-28T01:51:31;-3.10;99.90
23251;DHT22;11794;49.730;10.088;2023-02-28T01:54:01;-3.10;99.90
23251;DHT22;11794;49.730;10.088;2023-02-28T01:56:30;-3.10;99.90
23251;DHT22;11794;49.730;10.088;2023-02-28T01:58:57;-3.10;99.90
23251;DHT22;11794;49.730;10.088;2023-02-28T02:01:23;-3.20;99.90
23251;DHT22;11794;49.730;10.088;2023-02-28T02:03:53;-3.30;99.90
23251;DHT22;11794;49.730;10.088;2023-02-28T02:06:25;-3.30;99.90
23251;DHT22;11794;49.730;10.088;2023-02-28T02:08:52;-3.30;99.90
23251;DHT22;11794;49.730;10.088;2023-02-28T02:11:19;-3.30;99.90
23251;DHT22;11794;49.730;10.088;2023-02-28T02:16:36;-3.40;99.90
23251;DHT22;11794;49.730;10.088;2023-02-28T02:31:05;-3.50;99.90
23251;DHT22;11794;49.730;10.088;2023-02-28T02:34:05;-3.50;99.90
23251;DHT22;11794;49.730;10.088;2023-02-28T02:37:22;-3.60;99.90
23251;DHT22;11794;49.730;10.088;2023-02-28T02:39:48;-3.60;99.90
23251;DHT22;11794;49.730;10.088;2023-02-28T02:42:27;-3.60;99.90
23251;DHT22;11794;49.730;10.088;2023-02-28T02:45:04;-3.60;99.90
23251;DHT22;11794;49.730;10.088;2023-02-28T02:47:32;-3.60;99.90
23251;DHT22;11794;49.730;10.088;2023-02-28T02:50:02;-3.60;99.90
23251;DHT22;11794;49.730;10.088;2023-02-28T02:52:34;-3.70;99.90
23251;DHT22;11794;49.730;10.088;2023-02-28T02:55:02;-3.60;99.90
23251;DHT22;11794;49.730;10.088;2023-02-28T02:57:46;-3.60;99.90
23251;DHT22;11794;49.730;10.088;2023-02-28T03:00:14;-3.70;99.90
23251;DHT22;11794;49.730;10.088;2023-02-28T03:02:41;-3.60;99.90
23251;DHT22;11794;49.730;10.088;2023-02-28T03:05:25;-3.70;99.90
23251;DHT22;11794;49.730;10.088;2023-02-28T03:07:51;-3.70;99.90
23251;DHT22;11794;49.730;10.088;2023-02-28T03:10:33;-3.70;99.90
23251;DHT22;11794;49.730;10.088;2023-02-28T03:16:01;-3.70;99.90
23251;DHT22;11794;49.730;10.088;2023-02-28T03:18:43;-3.70;99.90
23251;DHT22;11794;49.730;10.088;2023-02-28T03:21:36;-3.60;99.90
23251;DHT22;11794;49.730;10.088;2023-02-28T03:24:11;-3.60;99.90
23251;DHT22;11794;49.730;10.088;2023-02-28T03:26:43;-3.60;99.90
23251;DHT22;11794;49.730;10.088;2023-02-28T03:31:58;-3.60;99.90
23251;DHT22;11794;49.730;10.088;2023-02-28T03:34:34;-3.60;99.90
23251;DHT22;11794;49.730;10.088;2023-02-28T03:37:08;-3.60;99.90
23251;DHT22;11794;49.730;10.088;2023-02-28T03:39:47;-3.60;99.90
23251;DHT22;11794;49.730;10.088;2023-02-28T03:42:25;-3.60;99.90
23251;DHT22;11794;49.730;10.088;2023-02-28T03:45:00;-3.60;99.90
23251;DHT22;11794;49.730;10.088;2023-02-28T03:47:38;-3.60;99.90
23251;DHT22;11794;49.730;10.088;2023-02-28T03:50:11;-3.60;99.90
23251;DHT22;11794;49.730;10.088;2023-02-28T03:52:44;-3.70;99.90
23251;DHT22;11794;49.730;10.088;2023-02-28T03:55:12;-3.70;99.90
23251;DHT22;11794;49.730;10.088;2023-02-28T04:00:41;-3.80;99.90
23251;DHT22;11794;49.730;10.088;2023-02-28T04:03:09;-3.80;99.90
23251;DHT22;11794;49.730;10.088;2023-02-28T04:05:52;-3.80;99.90
23251;DHT22;11794;49.730;10.088;2023-02-28T04:08:18;-3.80;99.90
23251;DHT22;11794;49.730;10.088;2023-02-28T04:10:47;-3.80;99.90
23251;DHT22;11794;49.730;10.088;2023-02-28T04:13:13;-3.80;99.90
23251;DHT22;11794;49.730;10.088;2023-02-28T04:15:39;-3.80;99.90
23251;DHT22;11794;49.730;10.088;2023-02-28T04:18:04;-3.80;99.90
23251;DHT22;11794;49.730;10.088;2023-02-28T04:20:30;-3.70;99.90
23251;DHT22;11794;49.730;10.088;2023-02-28T04:22:55;-3.80;99.90
23251;DHT22;11794;49.730;10.088;2023-02-28T04:25:20;-3.70;99.90
23251;DHT22;11794;49.730;10.088;2023-02-28T04:27:46;-3.70;99.90
23251;DHT22;11794;49.730;10.088;2023-02-28T04:30:12;-3.70;99.90
23251;DHT22;11794;49.730;10.088;2023-02-28T04:32:37;-3.70;99.90
23251;DHT22;11794;49.730;10.088;2023-02-28T04:35:03;-3.70;99.90
23251;DHT22;11794;49.730;10.088;2023-02-28T04:37:29;-3.70;99.90
23251;DHT22;11794;49.730;10.088;2023-02-28T04:39:54;-3.70;99.90
23251;DHT22;11794;49.730;10.088;2023-02-28T04:42:20;-3.70;99.90
23251;DHT22;11794;49.730;10.088;2023-02-28T04:44:45;-3.70;99.90
23251;DHT22;11794;49.730;10.088;2023-02-28T04:47:12;-3.70;99.90
23251;DHT22;11794;49.730;10.088;2023-02-28T04:49:38;-3.70;99.90
23251;DHT22;11794;49.730;10.088;2023-02-28T04:52:03;-3.60;99.90
23251;DHT22;11794;49.730;10.088;2023-02-28T04:54:29;-3.70;99.90
23251;DHT22;11794;49.730;10.088;2023-02-28T04:56:55;-3.70;99.90
23251;DHT22;11794;49.730;10.088;2023-02-28T04:59:20;-3.70;99.90
23251;DHT22;11794;49.730;10.088;2023-02-28T05:01:48;-3.80;99.90
23251;DHT22;11794;49.730;10.088;2023-02-28T05:04:14;-3.80;99.90
23251;DHT22;11794;49.730;10.088;2023-02-28T05:06:40;-3.90;99.90
23251;DHT22;11794;49.730;10.088;2023-02-28T05:09:06;-3.90;99.90
23251;DHT22;11794;49.730;10.088;2023-02-28T05:11:33;-3.90;99.90
23251;DHT22;11794;49.730;10.088;2023-02-28T05:14:12;-3.90;99.90
23251;DHT22;11794;49.730;10.088;2023-02-28T05:16:37;-3.90;99.90
23251;DHT22;11794;49.730;10.088;2023-02-28T05:19:03;-3.90;99.90
23251;DHT22;11794;49.730;10.088;2023-02-28T05:21:36;-3.90;99.90
23251;DHT22;11794;49.730;10.088;2023-02-28T05:24:05;-3.90;99.90
23251;DHT22;11794;49.730;10.088;2023-02-28T05:26:38;-3.90;99.90
23251;DHT22;11794;49.730;10.088;2023-02-28T05:29:04;-3.90;99.90
23251;DHT22;11794;49.730;10.088;2023-02-28T05:31:30;-3.90;99.90
23251;DHT22;11794;49.730;10.088;2023-02-28T05:33:55;-4.00;99.90
23251;DHT22;11794;49.730;10.088;2023-02-28T05:36:21;-4.00;99.90
23251;DHT22;11794;49.730;10.088;2023-02-28T05:38:48;-4.00;99.90
23251;DHT22;11794;49.730;10.088;2023-02-28T05:41:13;-3.90;99.90
23251;DHT22;11794;49.730;10.088;2023-02-28T05:43:39;-3.90;99.90
23251;DHT22;11794;49.730;10.088;2023-02-28T05:46:06;-3.90;99.90
23251;DHT22;11794;49.730;10.088;2023-02-28T05:48:34;-3.90;99.90
23251;DHT22;11794;49.730;10.088;2023-02-28T05:50:59;-3.90;99.90
23251;DHT22;11794;49.730;10.088;2023-02-28T05:53:25;-3.90;99.90
23251;DHT22;11794;49.730;10.088;2023-02-28T05:55:51;-3.90;99.90
23251;DHT22;11794;49.730;10.088;2023-02-28T05:58:17;-3.90;99.90
23251;DHT22;11794;49.730;10.088;2023-02-28T06:00:42;-3.90;99.90
23251;DHT22;11794;49.730;10.088;2023-02-28T06:03:08;-3.90;99.90
23251;DHT22;11794;49.730;10.088;2023-02-28T06:05:34;-3.90;99.90
23251;DHT22;11794;49.730;10.088;2023-02-28T06:07:59;-3.90;99.90
23251;DHT22;11794;49.730;10.088;2023-02-28T06:10:25;-3.90;99.90
23251;DHT22;11794;49.730;10.088;2023-02-28T06:12:50;-3.90;99.90
23251;DHT22;11794;49.730;10.088;2023-02-28T06:15:16;-3.90;99.90
23251;DHT22;11794;49.730;10.088;2023-02-28T06:17:42;-3.90;99.90
23251;DHT22;11794;49.730;10.088;2023-02-28T06:20:10;-3.80;99.90
23251;DHT22;11794;49.730;10.088;2023-02-28T06:22:38;-3.80;99.90
23251;DHT22;11794;49.730;10.088;2023-02-28T06:25:05;-3.80;99.90
23251;DHT22;11794;49.730;10.088;2023-02-28T06:27:31;-3.80;99.90
23251;DHT22;11794;49.730;10.088;2023-02-28T06:29:57;-3.60;99.90
23251;DHT22;11794;49.730;10.088;2023-02-28T06:32:22;-3.50;99.90
23251;DHT22;11794;49.730;10.088;2023-02-28T06:34:48;-3.40;99.90
23251;DHT22;11794;49.730;10.088;2023-02-28T06:37:14;-3.20;99.90
23251;DHT22;11794;49.730;10.088;2023-02-28T06:39:39;-3.10;99.90
23251;DHT22;11794;49.730;10.088;2023-02-28T06:42:05;-3.00;99.90
23251;DHT22;11794;49.730;10.088;2023-02-28T06:44:31;-2.90;99.90
23251;DHT22;11794;49.730;10.088;2023-02-28T06:47:04;-2.80;99.90
23251;DHT22;11794;49.730;10.088;2023-02-28T06:49:31;-2.70;99.90
23251;DHT22;11794;49.730;10.088;2023-02-28T06:51:57;-2.50;99.90
23251;DHT22;11794;49.730;10.088;2023-02-28T06:54:23;-2.30;99.90
23251;DHT22;11794;49.730;10.088;2023-02-28T06:56:48;-2.30;99.90
23251;DHT22;11794;49.730;10.088;2023-02-28T06:59:14;-2.20;99.90
23251;DHT22;11794;49.730;10.088;2023-02-28T07:01:39;-2.10;99.90
23251;DHT22;11794;49.730;10.088;2023-02-28T07:04:06;-2.10;99.90
23251;DHT22;11794;49.730;10.088;2023-02-28T07:06:31;-2.10;99.90
23251;DHT22;11794;49.730;10.088;2023-02-28T07:08:57;-2.00;99.90
23251;DHT22;11794;49.730;10.088;2023-02-28T07:11:25;-2.00;99.90
23251;DHT22;11794;49.730;10.088;2023-02-28T07:13:55;-1.90;99.90
23251;DHT22;11794;49.730;10.088;2023-02-28T07:16:22;-1.70;99.90
23251;DHT22;11794;49.730;10.088;2023-02-28T07:18:48;-1.60;99.90
23251;DHT22;11794;49.730;10.088;2023-02-28T07:21:14;-1.60;99.90
23251;DHT22;11794;49.730;10.088;2023-02-28T07:23:40;-1.50;99.90
23251;DHT22;11794;49.730;10.088;2023-02-28T07:26:07;-1.40;99.90
23251;DHT22;11794;49.730;10.088;2023-02-28T07:28:36;-1.30;99.90
23251;DHT22;11794;49.730;10.088;2023-02-28T07:31:05;-1.10;99.90
23251;DHT22;11794;49.730;10.088;2023-02-28T07:33:31;-1.00;99.90
23251;DHT22;11794;49.730;10.088;2023-02-28T07:36:04;-0.80;99.90
23251;DHT22;11794;49.730;10.088;2023-02-28T07:38:30;-0.60;99.90
23251;DHT22;11794;49.730;10.088;2023-02-28T07:40:56;-0.40;99.90
23251;DHT22;11794;49.730;10.088;2023-02-28T07:43:21;-0.30;99.90
23251;DHT22;11794;49.730;10.088;2023-02-28T07:45:47;-0.20;99.90
23251;DHT22;11794;49.730;10.088;2023-02-28T07:48:12;0.10;99.90
23251;DHT22;11794;49.730;10.088;2023-02-28T07:50:38;0.30;99.90
23251;DHT22;11794;49.730;10.088;2023-02-28T07:53:03;0.70;99.90
23251;DHT22;11794;49.730;10.088;2023-02-28T07:55:29;0.70;99.90
23251;DHT22;11794;49.730;10.088;2023-02-28T07:57:57;0.70;99.90
23251;DHT22;11794;49.730;10.088;2023-02-28T08:00:23;0.60;99.90
23251;DHT22;11794;49.730;10.088;2023-02-28T08:02:48;0.80;99.90
23251;DHT22;11794;49.730;10.088;2023-02-28T08:05:14;1.10;99.90
23251;DHT22;11794;49.730;10.088;2023-02-28T08:07:40;1.40;99.90
23251;DHT22;11794;49.730;10.088;2023-02-28T08:10:06;1.70;99.90
23251;DHT22;11794;49.730;10.088;2023-02-28T08:12:32;1.80;99.90
23251;DHT22;11794;49.730;10.088;2023-02-28T08:14:57;2.00;99.90
23251;DHT22;11794;49.730;10.088;2023-02-28T08:17:23;2.50;99.90
23251;DHT22;11794;49.730;10.088;2023-02-28T08:19:48;3.20;99.90
23251;DHT22;11794;49.730;10.088;2023-02-28T08:22:14;3.40;99.90
23251;DHT22;11794;49.730;10.088;2023-02-28T08:24:41;3.60;99.90
23251;DHT22;11794;49.730;10.088;2023-02-28T08:27:07;3.80;99.90
23251;DHT22;11794;49.730;10.088;2023-02-28T08:29:33;3.90;99.90
23251;DHT22;11794;49.730;10.088;2023-02-28T08:31:58;4.00;99.90
23251;DHT22;11794;49.730;10.088;2023-02-28T08:34:24;4.30;99.90
23251;DHT22;11794;49.730;10.088;2023-02-28T08:36:49;4.00;99.90
23251;DHT22;11794;49.730;10.088;2023-02-28T08:39:16;3.90;99.90
23251;DHT22;11794;49.730;10.088;2023-02-28T08:41:42;3.40;99.90
23251;DHT22;11794;49.730;10.088;2023-02-28T08:44:09;2.90;99.90
23251;DHT22;11794;49.730;10.088;2023-02-28T08:46:34;2.60;99.90
23251;DHT22;11794;49.730;10.088;2023-02-28T08:49:00;2.50;99.90
23251;DHT22;11794;49.730;10.088;2023-02-28T08:51:28;3.00;99.90
23251;DHT22;11794;49.730;10.088;2023-02-28T08:53:55;3.60;99.90
23251;DHT22;11794;49.730;10.088;2023-02-28T08:56:21;4.00;99.90
23251;DHT22;11794;49.730;10.088;2023-02-28T08:58:48;4.40;99.90
23251;DHT22;11794;49.730;10.088;2023-02-28T09:01:22;4.90;99.90
23251;DHT22;11794;49.730;10.088;2023-02-28T09:03:49;4.80;99.90
23251;DHT22;11794;49.730;10.088;2023-02-28T09:06:17;4.60;99.90
23251;DHT22;11794;49.730;10.088;2023-02-28T09:08:43;4.60;99.90
23251;DHT22;11794;49.730;10.088;2023-02-28T09:11:09;4.90;99.90
23251;DHT22;11794;49.730;10.088;2023-02-28T09:13:35;4.70;99.90
23251;DHT22;11794;49.730;10.088;2023-02-28T09:16:03;4.80;99.90
23251;DHT22;11794;49.730;10.088;2023-02-28T09:18:29;5.00;99.90
23251;DHT22;11794;49.730;10.088;2023-02-28T09:20:55;4.80;99.90
23251;DHT22;11794;49.730;10.088;2023-02-28T09:23:20;4.40;99.90
23251;DHT22;11794;49.730;10.088;2023-02-28T09:25:48;4.70;99.90
23251;DHT22;11794;49.730;10.088;2023-02-28T09:28:14;4.20;99.90
23251;DHT22;11794;49.730;10.088;2023-02-28T09:30:41;4.50;99.90
23251;DHT22;11794;49.730;10.088;2023-02-28T09:33:06;5.10;99.90
23251;DHT22;11794;49.730;10.088;2023-02-28T09:35:32;4.80;99.90
23251;DHT22;11794;49.730;10.088;2023-02-28T09:37:58;5.10;99.90
23251;DHT22;11794;49.730;10.088;2023-02-28T09:40:24;5.40;99.90
23251;DHT22;11794;49.730;10.088;2023-02-28T09:42:53;5.20;99.90
23251;DHT22;11794;49.730;10.088;2023-02-28T09:47:54;5.10;99.90
23251;DHT22;11794;49.730;10.088;2023-02-28T09:50:35;5.60;99.90
23251;DHT22;11794;49.730;10.088;2023-02-28T09:55:50;6.10;99.90
23251;DHT22;11794;49.730;10.088;2023-02-28T09:58:26;6.00;99.90
23251;DHT22;11794;49.730;10.088;2023-02-28T10:01:05;6.30;99.90
23251;DHT22;11794;49.730;10.088;2023-02-28T10:03:38;6.30;99.90
23251;DHT22;11794;49.730;10.088;2023-02-28T10:06:07;5.20;99.90
23251;DHT22;11794;49.730;10.088;2023-02-28T10:08:43;4.60;99.90
23251;DHT22;11794;49.730;10.088;2023-02-28T10:11:13;4.80;99.90
23251;DHT22;11794;49.730;10.088;2023-02-28T10:14:00;4.00;99.90
23251;DHT22;11794;49.730;10.088;2023-02-28T10:19:14;3.80;99.90
23251;DHT22;11794;49.730;10.088;2023-02-28T10:21:49;3.90;99.90
23251;DHT22;11794;49.730;10.088;2023-02-28T10:24:26;4.80;99.90
23251;DHT22;11794;49.730;10.088;2023-02-28T10:26:58;5.30;99.90
23251;DHT22;11794;49.730;10.088;2023-02-28T10:29:24;5.40;99.90
23251;DHT22;11794;49.730;10.088;2023-02-28T10:31:50;5.90;99.90
23251;DHT22;11794;49.730;10.088;2023-02-28T10:34:15;6.70;99.90
23251;DHT22;11794;49.730;10.088;2023-02-28T10:36:41;7.00;99.90
23251;DHT22;11794;49.730;10.088;2023-02-28T10:42:03;6.30;99.90
23251;DHT22;11794;49.730;10.088;2023-02-28T10:44:29;6.80;99.90
23251;DHT22;11794;49.730;10.088;2023-02-28T10:46:55;6.40;99.90
23251;DHT22;11794;49.730;10.088;2023-02-28T10:49:26;6.30;99.90
23251;DHT22;11794;49.730;10.088;2023-02-28T10:51:59;5.80;99.90
23251;DHT22;11794;49.730;10.088;2023-02-28T10:54:30;5.20;99.90
23251;DHT22;11794;49.730;10.088;2023-02-28T10:57:30;4.90;99.90
23251;DHT22;11794;49.730;10.088;2023-02-28T11:00:24;4.90;99.90
23251;DHT22;11794;49.730;10.088;2023-02-28T11:02:50;5.10;99.90
23251;DHT22;11794;49.730;10.088;2023-02-28T11:05:34;5.50;99.90
23251;DHT22;11794;49.730;10.088;2023-02-28T11:08:16;5.60;99.90
23251;DHT22;11794;49.730;10.088;2023-02-28T11:10:47;5.10;99.90
23251;DHT22;11794;49.730;10.088;2023-02-28T11:13:18;4.90;99.90
23251;DHT22;11794;49.730;10.088;2023-02-28T11:15:51;4.60;99.90
23251;DHT22;11794;49.730;10.088;2023-02-28T11:18:27;4.50;99.90
23251;DHT22;11794;49.730;10.088;2023-02-28T11:20:56;4.30;99.90
23251;DHT22;11794;49.730;10.088;2023-02-28T11:23:24;4.20;99.90
23251;DHT22;11794;49.730;10.088;2023-02-28T11:25:52;4.30;99.90
23251;DHT22;11794;49.730;10.088;2023-02-28T11:28:31;4.80;99.90
23251;DHT22;11794;49.730;10.088;2023-02-28T11:31:16;5.00;99.90
23251;DHT22;11794;49.730;10.088;2023-02-28T11:33:47;5.00;99.90
23251;DHT22;11794;49.730;10.088;2023-02-28T11:36:30;5.00;99.90
23251;DHT22;11794;49.730;10.088;2023-02-28T11:39:00;4.70;99.90
23251;DHT22;11794;49.730;10.088;2023-02-28T11:47:42;7.20;99.90
23251;DHT22;11794;49.730;10.088;2023-02-28T11:50:21;6.30;99.90
23251;DHT22;11794;49.730;10.088;2023-02-28T11:55:39;7.20;99.90
23251;DHT22;11794;49.730;10.088;2023-02-28T11:58:38;6.60;99.90
23251;DHT22;11794;49.730;10.088;2023-02-28T12:01:34;6.80;99.90
23251;DHT22;11794;49.730;10.088;2023-02-28T12:04:49;7.70;99.50
23251;DHT22;11794;49.730;10.088;2023-02-28T12:12:42;8.70;99.90
23251;DHT22;11794;49.730;10.088;2023-02-28T12:15:30;8.50;98.50
23251;DHT22;11794;49.730;10.088;2023-02-28T12:23:58;5.80;99.90
23251;DHT22;11794;49.730;10.088;2023-02-28T12:26:31;6.90;99.90
23251;DHT22;11794;49.730;10.088;2023-02-28T12:29:29;8.00;99.90
23251;DHT22;11794;49.730;10.088;2023-02-28T12:31:59;8.90;99.30
23251;DHT22;11794;49.730;10.088;2023-02-28T12:34:35;8.80;97.80
23251;DHT22;11794;49.730;10.088;2023-02-28T12:37:07;7.70;98.90
23251;DHT22;11794;49.730;10.088;2023-02-28T12:39:40;7.00;99.90
23251;DHT22;11794;49.730;10.088;2023-02-28T12:42:16;6.50;99.90
23251;DHT22;11794;49.730;10.088;2023-02-28T12:45:02;7.70;99.90
23251;DHT22;11794;49.730;10.088;2023-02-28T12:47:28;9.10;99.50
23251;DHT22;11794;49.730;10.088;2023-02-28T12:49:58;9.90;97.50
23251;DHT22;11794;49.730;10.088;2023-02-28T12:52:34;10.30;97.30
23251;DHT22;11794;49.730;10.088;2023-02-28T12:55:17;10.60;96.90
23251;DHT22;11794;49.730;10.088;2023-02-28T13:00:25;10.80;96.10
23251;DHT22;11794;49.730;10.088;2023-02-28T13:03:16;10.90;96.10
23251;DHT22;11794;49.730;10.088;2023-02-28T13:10:59;10.10;94.80
23251;DHT22;11794;49.730;10.088;2023-02-28T13:13:27;8.80;95.50
23251;DHT22;11794;49.730;10.088;2023-02-28T13:16:06;8.90;96.30
23251;DHT22;11794;49.730;10.088;2023-02-28T13:18:45;10.00;95.30
23251;DHT22;11794;49.730;10.088;2023-02-28T13:21:27;9.30;94.60
23251;DHT22;11794;49.730;10.088;2023-02-28T13:39:49;10.40;96.30
23251;DHT22;11794;49.730;10.088;2023-02-28T13:58:43;13.00;92.20
23251;DHT22;11794;49.730;10.088;2023-02-28T14:01:37;12.70;92.10
23251;DHT22;11794;49.730;10.088;2023-02-28T14:04:35;11.50;92.20
23251;DHT22;11794;49.730;10.088;2023-02-28T14:07:04;11.20;92.80
23251;DHT22;11794;49.730;10.088;2023-02-28T14:09:44;11.50;93.00
23251;DHT22;11794;49.730;10.088;2023-02-28T14:15:36;11.80;92.70
23251;DHT22;11794;49.730;10.088;2023-02-28T14:20:40;12.90;92.30
23251;DHT22;11794;49.730;10.088;2023-02-28T14:25:38;12.50;91.30
23251;DHT22;11794;49.730;10.088;2023-02-28T14:30:56;11.80;91.40
23251;DHT22;11794;49.730;10.088;2023-02-28T14:33:35;11.60;91.70
23251;DHT22;11794;49.730;10.088;2023-02-28T14:36:06;11.70;91.30
23251;DHT22;11794;49.730;10.088;2023-02-28T14:38:56;11.50;92.20
23251;DHT22;11794;49.730;10.088;2023-02-28T14:41:30;11.00;92.90
23251;DHT22;11794;49.730;10.088;2023-02-28T14:43:58;10.30;92.80
23251;DHT22;11794;49.730;10.088;2023-02-28T14:46:27;10.20;93.30
23251;DHT22;11794;49.730;10.088;2023-02-28T14:48:54;10.60;93.20
23251;DHT22;11794;49.730;10.088;2023-02-28T14:51:23;10.90;92.80
23251;DHT22;11794;49.730;10.088;2023-02-28T14:53:56;11.60;92.50
23251;DHT22;11794;49.730;10.088;2023-02-28T14:56:34;11.00;92.80
23251;DHT22;11794;49.730;10.088;2023-02-28T14:59:01;10.50;93.00
23251;DHT22;11794;49.730;10.088;2023-02-28T15:01:26;9.80;93.70
23251;DHT22;11794;49.730;10.088;2023-02-28T15:04:01;10.00;93.70
23251;DHT22;11794;49.730;10.088;2023-02-28T15:06:28;10.10;93.20
23251;DHT22;11794;49.730;10.088;2023-02-28T15:09:17;10.30;93.30
23251;DHT22;11794;49.730;10.088;2023-02-28T15:11:47;10.40;93.20
23251;DHT22;11794;49.730;10.088;2023-02-28T15:14:18;10.00;93.60
23251;DHT22;11794;49.730;10.088;2023-02-28T15:16:45;9.80;93.40
23251;DHT22;11794;49.730;10.088;2023-02-28T15:19:24;9.70;93.70
23251;DHT22;11794;49.730;10.088;2023-02-28T15:21:58;9.20;93.80
23251;DHT22;11794;49.730;10.088;2023-02-28T15:24:39;8.60;94.30
23251;DHT22;11794;49.730;10.088;2023-02-28T15:27:15;8.00;95.30
23251;DHT22;11794;49.730;10.088;2023-02-28T15:29:49;7.60;95.70
23251;DHT22;11794;49.730;10.088;2023-02-28T15:34:48;6.90;97.20
23251;DHT22;11794;49.730;10.088;2023-02-28T15:37:27;7.00;97.70
23251;DHT22;11794;49.730;10.088;2023-02-28T15:40:04;7.10;97.40
23251;DHT22;11794;49.730;10.088;2023-02-28T15:42:30;7.10;97.60
23251;DHT22;11794;49.730;10.088;2023-02-28T15:44:57;6.90;97.80
23251;DHT22;11794;49.730;10.088;2023-02-28T15:47:25;6.80;97.20
23251;DHT22;11794;49.730;10.088;2023-02-28T15:50:00;6.30;97.80
23251;DHT22;11794;49.730;10.088;2023-02-28T15:52:39;6.10;98.80
23251;DHT22;11794;49.730;10.088;2023-02-28T15:55:20;5.90;98.70
23251;DHT22;11794;49.730;10.088;2023-02-28T15:57:50;5.90;99.20
23251;DHT22;11794;49.730;10.088;2023-02-28T16:00:20;5.80;99.20
23251;DHT22;11794;49.730;10.088;2023-02-28T16:02:47;5.50;99.70
23251;DHT22;11794;49.730;10.088;2023-02-28T16:05:30;5.00;99.90
23251;DHT22;11794;49.730;10.088;2023-02-28T16:08:14;4.80;99.90
23251;DHT22;11794;49.730;10.088;2023-02-28T16:10:40;4.40;99.90
23251;DHT22;11794;49.730;10.088;2023-02-28T16:13:06;4.20;99.90
23251;DHT22;11794;49.730;10.088;2023-02-28T16:15:37;4.00;99.90
23251;DHT22;11794;49.730;10.088;2023-02-28T16:18:10;3.80;99.90
23251;DHT22;11794;49.730;10.088;2023-02-28T16:20:36;3.70;99.90
23251;DHT22;11794;49.730;10.088;2023-02-28T16:23:01;3.60;99.90
23251;DHT22;11794;49.730;10.088;2023-02-28T16:25:39;3.50;99.90
23251;DHT22;11794;49.730;10.088;2023-02-28T16:28:15;3.30;99.90
23251;DHT22;11794;49.730;10.088;2023-02-28T16:30:40;3.30;99.90
23251;DHT22;11794;49.730;10.088;2023-02-28T16:33:07;3.20;99.90
23251;DHT22;11794;49.730;10.088;2023-02-28T16:35:33;3.10;99.90
23251;DHT22;11794;49.730;10.088;2023-02-28T16:37:59;3.00;99.90
23251;DHT22;11794;49.730;10.088;2023-02-28T16:40:26;3.00;99.90
23251;DHT22;11794;49.730;10.088;2023-02-28T16:42:56;2.90;99.90
23251;DHT22;11794;49.730;10.088;2023-02-28T16:45:27;2.80;99.90
23251;DHT22;11794;49.730;10.088;2023-02-28T16:47:54;2.80;99.90
23251;DHT22;11794;49.730;10.088;2023-02-28T16:50:29;2.70;99.90
23251;DHT22;11794;49.730;10.088;2023-02-28T16:52:55;2.60;99.90
23251;DHT22;11794;49.730;10.088;2023-02-28T16:55:22;2.60;99.90
23251;DHT22;11794;49.730;10.088;2023-02-28T16:57:52;2.50;99.90
23251;DHT22;11794;49.730;10.088;2023-02-28T17:00:18;2.50;99.90
23251;DHT22;11794;49.730;10.088;2023-02-28T17:02:44;2.40;99.90
23251;DHT22;11794;49.730;10.088;2023-02-28T17:05:13;2.40;99.90
23251;DHT22;11794;49.730;10.088;2023-02-28T17:07:41;2.30;99.90
23251;DHT22;11794;49.730;10.088;2023-02-28T17:10:28;2.20;99.90
23251;DHT22;11794;49.730;10.088;2023-02-28T17:12:54;2.10;99.90
23251;DHT22;11794;49.730;10.088;2023-02-28T17:15:20;2.00;99.90
23251;DHT22;11794;49.730;10.088;2023-02-28T17:17:48;2.00;99.90
23251;DHT22;11794;49.730;10.088;2023-02-28T17:20:17;2.00;99.90
23251;DHT22;11794;49.730;10.088;2023-02-28T17:22:42;2.00;99.90
23251;DHT22;11794;49.730;10.088;2023-02-28T17:25:09;2.00;99.90
23251;DHT22;11794;49.730;10.088;2023-02-28T17:27:35;2.00;99.90
23251;DHT22;11794;49.730;10.088;2023-02-28T17:30:02;2.00;99.90
23251;DHT22;11794;49.730;10.088;2023-02-28T17:32:28;1.90;99.90